Terminal Aerodrome Forecast
Issued by NWS

Home | Current Version | Previous Version | Text Only | Print | Product List | Glossary Off
Versions: 1 2 3 4 5 6 7 8 9 10 11 12 13 14 15 16 17 18 19 20 21 22 23 24

000
FTUS45 KGGW 190526
TAFGDV
TAF
KGDV 190526Z 1906/2006 13009KT P6SM BKN100
     FM191200 29009KT P6SM VCSH OVC070
     FM191600 29015KT P6SM BKN070
     FM200300 25009KT P6SM SCT110=

USA.gov is the U.S. government's official web portal to all federal, state and local government web resources and services.